createdAt,value
2022-10-18T00:00:55.835Z,15.98
2022-10-18T00:01:55.779Z,15.98
2022-10-18T00:02:55.746Z,15.98
2022-10-18T00:03:55.756Z,15.99
2022-10-18T00:04:55.708Z,16.00
2022-10-18T00:05:55.698Z,15.99
2022-10-18T00:06:55.694Z,15.99
2022-10-18T00:07:55.668Z,16.02
2022-10-18T00:08:55.678Z,16.02
2022-10-18T00:09:55.651Z,16.02
2022-10-18T00:10:55.640Z,16.03
2022-10-18T00:11:55.619Z,16.05
2022-10-18T00:12:55.615Z,16.03
2022-10-18T00:13:55.611Z,16.03
2022-10-18T00:14:55.569Z,16.00
2022-10-18T00:15:55.571Z,15.99
2022-10-18T00:16:55.566Z,15.96
2022-10-18T00:17:55.548Z,15.94
2022-10-18T00:18:55.558Z,15.92
2022-10-18T00:19:55.508Z,15.91
2022-10-18T00:20:55.500Z,15.90
2022-10-18T00:21:55.491Z,15.91
2022-10-18T00:22:55.479Z,15.91
2022-10-18T00:23:55.481Z,15.90
2022-10-18T00:24:55.450Z,15.91
2022-10-18T00:25:55.440Z,15.92
2022-10-18T00:26:55.420Z,15.96
2022-10-18T00:27:55.412Z,15.96
2022-10-18T00:28:55.489Z,15.94
2022-10-18T00:29:55.379Z,15.94
2022-10-18T00:30:55.371Z,15.94
2022-10-18T00:31:55.370Z,15.92
2022-10-18T00:32:55.341Z,15.96
2022-10-18T00:33:55.341Z,15.98
2022-10-18T00:34:55.391Z,15.96
2022-10-18T00:35:55.300Z,15.96
2022-10-18T00:36:55.291Z,15.96
2022-10-18T00:37:55.272Z,15.98
2022-10-18T00:38:55.291Z,15.96
2022-10-18T00:39:55.251Z,15.96
2022-10-18T00:40:55.241Z,15.98
2022-10-18T00:41:55.221Z,15.96
2022-10-18T00:42:55.211Z,15.96
2022-10-18T00:43:55.211Z,15.96
2022-10-18T00:44:55.204Z,15.96
2022-10-18T00:45:55.171Z,15.98
2022-10-18T00:46:55.163Z,15.96
2022-10-18T00:47:55.140Z,15.98
2022-10-18T00:49:55.122Z,15.99
2022-10-18T00:50:55.112Z,15.98
2022-10-18T00:51:55.093Z,15.96
2022-10-18T00:52:55.133Z,15.94
2022-10-18T00:53:55.082Z,15.92
2022-10-18T00:54:55.051Z,15.92
2022-10-18T00:55:55.033Z,15.92
2022-10-18T00:56:55.031Z,15.92
2022-10-18T00:58:55.014Z,15.94
2022-10-18T00:59:54.987Z,15.94
2022-10-18T01:00:55.019Z,15.98
2022-10-18T01:01:55.025Z,15.94
2022-10-18T01:02:54.950Z,15.99
2022-10-18T01:03:54.963Z,15.99
2022-10-18T01:04:54.924Z,15.99
2022-10-18T01:05:54.895Z,15.99
2022-10-18T01:06:54.913Z,16.00
2022-10-18T01:07:54.874Z,16.00
2022-10-18T01:08:54.873Z,16.02
2022-10-18T01:09:54.894Z,16.02
2022-10-18T01:10:54.846Z,16.03
2022-10-18T01:11:54.815Z,16.03
2022-10-18T01:12:54.814Z,16.02
2022-10-18T01:13:54.794Z,16.05
2022-10-18T01:14:54.811Z,16.02
2022-10-18T01:16:54.766Z,15.99
2022-10-18T01:17:54.745Z,15.99
2022-10-18T01:18:54.731Z,15.98
2022-10-18T01:19:54.724Z,15.96
2022-10-18T01:20:54.712Z,15.94
2022-10-18T01:21:54.706Z,15.94
2022-10-18T01:22:54.683Z,15.92
2022-10-18T01:23:54.682Z,15.92
2022-10-18T01:24:54.710Z,15.92
2022-10-18T01:25:54.636Z,15.92
2022-10-18T01:26:54.627Z,15.92
2022-10-18T01:27:54.606Z,15.92
2022-10-18T01:28:54.652Z,15.92
2022-10-18T01:29:54.596Z,15.91
2022-10-18T01:30:54.575Z,15.92
2022-10-18T01:31:56.448Z,15.91
2022-10-18T01:32:54.569Z,15.91
2022-10-18T01:33:54.571Z,15.92
2022-10-18T01:34:54.545Z,15.92
2022-10-18T01:35:54.506Z,15.92
2022-10-18T01:36:54.496Z,15.92
2022-10-18T01:37:54.466Z,15.90
2022-10-18T01:38:54.501Z,15.88
2022-10-18T01:39:54.465Z,15.88
2022-10-18T01:40:54.437Z,15.87
2022-10-18T01:41:54.435Z,15.87
2022-10-18T01:42:54.450Z,15.90
2022-10-18T01:43:54.418Z,15.88
2022-10-18T01:44:54.396Z,15.90
2022-10-18T01:45:54.375Z,15.90
2022-10-18T01:46:54.366Z,15.90
2022-10-18T01:47:54.355Z,15.94
2022-10-18T01:48:54.347Z,15.94
2022-10-18T01:49:54.325Z,15.98
2022-10-18T01:50:54.308Z,16.00
2022-10-18T01:51:54.381Z,16.02
2022-10-18T01:52:54.288Z,16.02
2022-10-18T01:53:54.267Z,16.05
2022-10-18T01:54:54.247Z,16.06
2022-10-18T01:55:54.247Z,16.06
2022-10-18T01:56:54.238Z,16.08
2022-10-18T01:57:54.227Z,16.09
2022-10-18T01:58:54.244Z,16.09
2022-10-18T01:59:54.187Z,16.10
2022-10-18T02:00:54.167Z,16.10
2022-10-18T02:01:54.178Z,16.10
2022-10-18T02:02:54.147Z,16.10
2022-10-18T02:03:54.147Z,16.09
2022-10-18T02:04:54.117Z,16.10
2022-10-18T02:05:54.118Z,16.09
2022-10-18T02:06:54.107Z,16.08
2022-10-18T02:08:05.615Z,16.06
2022-10-18T02:08:55.068Z,16.02
2022-10-18T02:09:54.067Z,16.00
2022-10-18T02:10:54.038Z,15.99
2022-10-18T02:11:54.086Z,15.99
2022-10-18T02:12:54.018Z,15.98
2022-10-18T02:13:53.999Z,15.98
2022-10-18T02:14:53.988Z,15.98
2022-10-18T02:15:53.989Z,15.96
2022-10-18T02:16:53.979Z,15.96
2022-10-18T02:17:53.949Z,15.96
2022-10-18T02:18:53.939Z,15.94
2022-10-18T02:19:53.929Z,15.96
2022-10-18T02:20:53.908Z,15.96
2022-10-18T02:21:53.928Z,15.98
2022-10-18T02:22:53.879Z,15.96
2022-10-18T02:23:53.869Z,15.96
2022-10-18T02:24:53.860Z,15.96
2022-10-18T02:25:53.857Z,15.96
2022-10-18T02:26:53.838Z,15.94
2022-10-18T02:27:53.826Z,15.91
2022-10-18T02:28:53.809Z,15.91
2022-10-18T02:29:53.794Z,15.91
2022-10-18T02:30:53.791Z,15.88
2022-10-18T02:31:53.783Z,15.88
2022-10-18T02:32:53.749Z,15.87
2022-10-18T02:33:53.740Z,15.90
2022-10-18T02:34:53.775Z,15.90
2022-10-18T02:35:53.720Z,15.90
2022-10-18T02:36:53.710Z,15.90
2022-10-18T02:37:53.694Z,15.90
2022-10-18T02:38:53.687Z,15.88
2022-10-18T02:39:53.660Z,15.85
2022-10-18T02:40:53.641Z,15.85
2022-10-18T02:41:53.761Z,15.87
2022-10-18T02:42:53.621Z,15.85
2022-10-18T02:43:53.638Z,15.84
2022-10-18T02:44:53.606Z,15.83
2022-10-18T02:45:53.581Z,15.83
2022-10-18T02:46:53.731Z,15.83
2022-10-18T02:47:53.557Z,15.81
2022-10-18T02:48:53.550Z,15.80
2022-10-18T02:49:53.532Z,15.80
2022-10-18T02:50:53.522Z,15.83
2022-10-18T02:51:53.529Z,15.83
2022-10-18T02:52:53.479Z,15.83
2022-10-18T02:53:53.480Z,15.84
2022-10-18T02:54:53.462Z,15.84
2022-10-18T02:55:53.487Z,15.84
2022-10-18T02:56:53.476Z,15.87
2022-10-18T02:57:53.423Z,15.85
2022-10-18T02:58:53.411Z,15.85
2022-10-18T02:59:53.392Z,15.85
2022-10-18T03:00:53.402Z,15.84
2022-10-18T03:01:53.498Z,15.83
2022-10-18T03:02:53.359Z,15.84
2022-10-18T03:03:53.364Z,15.83
2022-10-18T03:04:53.333Z,15.83
2022-10-18T03:05:53.313Z,15.83
2022-10-18T03:06:53.320Z,15.81
2022-10-18T03:07:53.293Z,15.81
2022-10-18T03:08:53.272Z,15.81
2022-10-18T03:09:53.264Z,15.81
2022-10-18T03:10:53.244Z,15.81
2022-10-18T03:11:53.253Z,15.81
2022-10-18T03:12:53.221Z,15.81
2022-10-18T03:13:53.222Z,15.81
2022-10-18T03:14:53.194Z,15.80
2022-10-18T03:15:53.186Z,15.81
2022-10-18T03:16:53.174Z,15.83
2022-10-18T03:17:53.164Z,15.84
2022-10-18T03:18:53.141Z,15.85
2022-10-18T03:19:53.141Z,15.87
2022-10-18T03:20:53.116Z,15.88
2022-10-18T03:21:53.114Z,15.87
2022-10-18T03:22:53.095Z,15.90
2022-10-18T03:23:53.065Z,15.91
2022-10-18T03:24:53.063Z,15.90
2022-10-18T03:25:53.053Z,15.90
2022-10-18T03:26:53.066Z,15.91
2022-10-18T03:27:53.022Z,15.91
2022-10-18T03:28:53.060Z,15.91
2022-10-18T03:29:52.988Z,15.92
2022-10-18T03:30:52.985Z,15.91
2022-10-18T03:31:53.005Z,15.91
2022-10-18T03:32:53.130Z,15.90
2022-10-18T03:33:52.947Z,15.90
2022-10-18T03:34:52.926Z,15.91
2022-10-18T03:35:52.935Z,15.91
2022-10-18T03:36:53.025Z,15.92
2022-10-18T03:37:52.886Z,15.92
2022-10-18T03:38:52.892Z,15.92
2022-10-18T03:39:52.856Z,15.92
2022-10-18T03:40:52.855Z,15.91
2022-10-18T03:41:52.995Z,15.90
2022-10-18T03:42:52.825Z,15.88
2022-10-18T03:43:52.807Z,15.87
2022-10-18T03:44:52.803Z,15.88
2022-10-18T03:45:52.779Z,15.87
2022-10-18T03:46:52.796Z,15.88
2022-10-18T03:47:52.757Z,15.88
2022-10-18T03:48:52.765Z,15.91
2022-10-18T03:49:56.232Z,15.91
2022-10-18T03:50:52.724Z,15.90
2022-10-18T03:51:52.727Z,15.90
2022-10-18T03:52:52.695Z,15.90
2022-10-18T03:53:52.717Z,15.90
2022-10-18T03:54:52.657Z,15.90
2022-10-18T03:55:52.651Z,15.90
2022-10-18T03:56:52.637Z,15.88
2022-10-18T03:57:52.636Z,15.88
2022-10-18T03:58:52.619Z,15.90
2022-10-18T03:59:52.579Z,15.90
2022-10-18T04:00:52.695Z,15.91
2022-10-18T04:01:52.636Z,15.91
2022-10-18T04:02:55.120Z,15.91
2022-10-18T04:03:52.536Z,15.91
2022-10-18T04:04:52.528Z,15.90
2022-10-18T04:05:52.517Z,15.91
2022-10-18T04:06:52.499Z,15.94
2022-10-18T04:07:52.508Z,15.92
2022-10-18T04:08:52.487Z,15.91
2022-10-18T04:09:52.458Z,15.91
2022-10-18T04:10:52.457Z,15.92
2022-10-18T04:11:52.441Z,15.92
2022-10-18T04:12:52.447Z,15.92
2022-10-18T04:13:52.418Z,15.94
2022-10-18T04:14:52.399Z,15.92
2022-10-18T04:15:52.378Z,15.94
2022-10-18T04:16:52.430Z,15.96
2022-10-18T04:17:52.382Z,15.96
2022-10-18T04:18:52.339Z,15.96
2022-10-18T04:19:52.351Z,15.96
2022-10-18T04:20:52.319Z,15.96
2022-10-18T04:21:52.308Z,15.96
2022-10-18T04:22:52.312Z,15.98
2022-10-18T04:23:52.289Z,15.99
2022-10-18T04:24:52.273Z,15.99
2022-10-18T04:25:52.270Z,15.99
2022-10-18T04:26:52.241Z,15.99
2022-10-18T04:27:52.240Z,15.99
2022-10-18T04:28:52.270Z,15.99
2022-10-18T04:29:52.199Z,15.99
2022-10-18T04:30:52.195Z,15.99
2022-10-18T04:31:52.170Z,15.98
2022-10-18T04:32:52.194Z,15.98
2022-10-18T04:33:52.150Z,15.96
2022-10-18T04:34:52.146Z,15.98
2022-10-18T04:35:52.121Z,15.98
2022-10-18T04:36:52.113Z,15.96
2022-10-18T04:37:52.150Z,15.96
2022-10-18T04:38:52.091Z,15.96
2022-10-18T04:39:53.718Z,15.96
2022-10-18T04:40:52.062Z,15.96
2022-10-18T04:41:52.039Z,15.96
2022-10-18T04:42:52.052Z,15.98
2022-10-18T04:43:52.005Z,15.99
2022-10-18T04:44:52.011Z,15.98
2022-10-18T04:45:51.982Z,15.99
2022-10-18T04:46:51.972Z,15.99
2022-10-18T04:47:52.031Z,15.99
2022-10-18T04:48:51.952Z,16.00
2022-10-18T04:49:51.942Z,16.00
2022-10-18T04:50:51.922Z,16.02
2022-10-18T04:51:51.911Z,16.00
2022-10-18T04:52:51.931Z,16.00
2022-10-18T04:53:51.893Z,16.00
2022-10-18T04:54:51.872Z,16.02
2022-10-18T04:55:51.882Z,16.02
2022-10-18T04:56:51.850Z,16.00
2022-10-18T04:57:51.844Z,16.00
2022-10-18T04:58:51.832Z,16.02
2022-10-18T04:59:51.809Z,16.02
2022-10-18T05:00:51.791Z,16.02
2022-10-18T05:01:51.848Z,16.00
2022-10-18T05:02:51.774Z,16.00
2022-10-18T05:03:51.744Z,16.02
2022-10-18T05:04:51.807Z,16.02
2022-10-18T05:06:06.740Z,16.00
2022-10-18T05:06:52.711Z,16.02
2022-10-18T05:07:51.704Z,16.00
2022-10-18T05:08:51.683Z,16.00
2022-10-18T05:09:51.663Z,16.03
2022-10-18T05:10:51.663Z,16.02
2022-10-18T05:11:51.648Z,16.03
2022-10-18T05:12:51.652Z,16.03
2022-10-18T05:13:51.614Z,16.03
2022-10-18T05:14:51.604Z,16.02
2022-10-18T05:15:51.584Z,16.03
2022-10-18T05:16:51.580Z,16.03
2022-10-18T05:17:51.564Z,16.02
2022-10-18T05:18:51.534Z,16.03
2022-10-18T05:19:51.535Z,16.03
2022-10-18T05:20:51.708Z,16.08
2022-10-18T05:21:51.507Z,16.21
2022-10-18T05:22:51.506Z,16.24
2022-10-18T05:23:51.475Z,16.29
2022-10-18T05:24:51.468Z,16.34
2022-10-18T05:25:51.445Z,16.37
2022-10-18T05:26:51.445Z,16.36
2022-10-18T05:27:51.436Z,16.32
2022-10-18T05:28:51.454Z,16.32
2022-10-18T05:29:51.404Z,16.31
2022-10-18T05:30:51.386Z,16.29
2022-10-18T05:31:51.373Z,16.26
2022-10-18T05:32:51.356Z,16.31
2022-10-18T05:33:51.358Z,16.36
2022-10-18T05:34:51.347Z,16.39
2022-10-18T05:35:51.324Z,16.41
2022-10-18T05:36:51.328Z,16.43
2022-10-18T05:37:51.304Z,16.43
2022-10-18T05:38:51.297Z,16.44
2022-10-18T05:39:51.267Z,16.46
2022-10-18T05:40:51.257Z,16.43
2022-10-18T05:41:51.249Z,16.44
2022-10-18T05:42:51.236Z,16.43
2022-10-18T05:43:51.249Z,16.46
2022-10-18T05:44:51.219Z,16.49
2022-10-18T05:45:51.198Z,16.49
2022-10-18T05:46:51.187Z,16.47
2022-10-18T05:47:51.180Z,16.49
2022-10-18T05:48:51.183Z,16.54
2022-10-18T05:49:51.150Z,16.61
2022-10-18T05:50:51.149Z,16.68
2022-10-18T05:51:51.109Z,16.73
2022-10-18T05:52:51.146Z,16.79
2022-10-18T05:53:51.118Z,16.86
2022-10-18T05:54:51.086Z,16.91
2022-10-18T05:55:51.073Z,16.94
2022-10-18T05:56:51.049Z,16.98
2022-10-18T05:57:51.029Z,17.02
2022-10-18T05:58:51.038Z,17.09
2022-10-18T05:59:50.989Z,17.12
2022-10-18T06:00:50.998Z,17.16
2022-10-18T06:01:51.039Z,17.19
2022-10-18T06:02:51.043Z,17.19
2022-10-18T06:03:50.969Z,17.17
2022-10-18T06:04:50.954Z,17.09
2022-10-18T06:05:50.939Z,17.01
2022-10-18T06:06:50.911Z,16.94
2022-10-18T06:07:50.903Z,16.84
2022-10-18T06:08:50.899Z,16.77
2022-10-18T06:09:50.869Z,16.68
2022-10-18T06:10:50.860Z,16.62
2022-10-18T06:11:50.850Z,16.58
2022-10-18T06:12:50.849Z,16.55
2022-10-18T06:13:50.844Z,16.49
2022-10-18T06:14:50.814Z,16.47
2022-10-18T06:15:50.792Z,16.44
2022-10-18T06:16:50.803Z,16.43
2022-10-18T06:17:50.786Z,16.40
2022-10-18T06:18:50.773Z,16.39
2022-10-18T06:19:50.751Z,16.37
2022-10-18T06:20:50.739Z,16.36
2022-10-18T06:21:50.721Z,16.32
2022-10-18T06:22:50.721Z,16.31
2022-10-18T06:23:50.691Z,16.28
2022-10-18T06:24:55.069Z,16.26
2022-10-18T06:25:51.681Z,16.25
2022-10-18T06:26:50.642Z,16.22
2022-10-18T06:27:50.651Z,16.21
2022-10-18T06:28:50.695Z,16.21
2022-10-18T06:29:50.612Z,16.17
2022-10-18T06:30:50.592Z,16.12
2022-10-18T06:31:50.590Z,16.12
2022-10-18T06:32:50.596Z,16.10
2022-10-18T06:33:50.561Z,16.10
2022-10-18T06:34:50.554Z,16.10
2022-10-18T06:35:50.530Z,16.09
2022-10-18T06:36:53.806Z,16.09
2022-10-18T06:37:51.524Z,16.09
2022-10-18T06:38:50.503Z,16.09
2022-10-18T06:39:50.482Z,16.08
2022-10-18T06:40:50.472Z,16.09
2022-10-18T06:41:50.544Z,16.09
2022-10-18T06:43:00.022Z,16.09
2022-10-18T06:43:51.423Z,16.10
2022-10-18T06:44:50.414Z,16.10
2022-10-18T06:45:50.403Z,16.10
2022-10-18T06:46:50.943Z,16.10
2022-10-18T06:47:50.363Z,16.10
2022-10-18T06:48:50.378Z,16.09
2022-10-18T06:49:50.354Z,16.09
2022-10-18T06:50:50.334Z,16.10
2022-10-18T06:51:50.321Z,16.09
2022-10-18T06:52:50.314Z,16.10
2022-10-18T06:54:05.913Z,16.12
2022-10-18T06:54:51.274Z,16.12
2022-10-18T06:55:50.267Z,16.12
2022-10-18T06:56:50.253Z,16.13
2022-10-18T06:57:50.225Z,16.12
2022-10-18T06:58:50.262Z,16.12
2022-10-18T06:59:50.214Z,16.13
2022-10-18T07:00:50.205Z,16.12
2022-10-18T07:01:50.230Z,16.12
2022-10-18T07:02:50.175Z,16.12
2022-10-18T07:03:50.166Z,16.16
2022-10-18T07:04:50.159Z,16.16
2022-10-18T07:05:50.191Z,16.17
2022-10-18T07:06:50.126Z,16.18
2022-10-18T07:07:54.214Z,16.17
2022-10-18T07:08:51.115Z,16.21
2022-10-18T07:09:50.106Z,16.21
2022-10-18T07:10:50.076Z,16.22
2022-10-18T07:11:50.046Z,16.24
2022-10-18T07:12:51.581Z,16.22
2022-10-18T07:13:50.055Z,16.24
2022-10-18T07:14:50.033Z,16.25
2022-10-18T07:15:49.997Z,16.26
2022-10-18T07:16:49.996Z,16.25
2022-10-18T07:17:49.976Z,16.25
2022-10-18T07:18:49.987Z,16.26
2022-10-18T07:19:49.948Z,16.28
2022-10-18T07:20:49.936Z,16.29
2022-10-18T07:21:49.916Z,16.29
2022-10-18T07:22:49.917Z,16.32
2022-10-18T07:23:49.915Z,16.31
2022-10-18T07:24:49.897Z,16.34
2022-10-18T07:25:49.870Z,16.36
2022-10-18T07:26:49.868Z,16.36
2022-10-18T07:27:49.837Z,16.37
2022-10-18T07:28:49.961Z,16.40
2022-10-18T07:29:49.816Z,16.41
2022-10-18T07:30:49.804Z,16.41
2022-10-18T07:31:49.788Z,16.44
2022-10-18T07:32:49.769Z,16.46
2022-10-18T07:33:49.778Z,16.46
2022-10-18T07:34:49.761Z,16.47
2022-10-18T07:35:49.738Z,16.49
2022-10-18T07:36:49.719Z,16.50
2022-10-18T07:37:49.714Z,16.50
2022-10-18T07:38:49.715Z,16.54
2022-10-18T07:39:49.678Z,16.54
2022-10-18T07:40:49.678Z,16.55
2022-10-18T07:41:49.658Z,16.58
2022-10-18T07:42:51.392Z,16.57
2022-10-18T07:43:49.837Z,16.59
2022-10-18T07:44:49.617Z,16.58
2022-10-18T07:45:49.599Z,16.59
2022-10-18T07:46:49.609Z,16.58
2022-10-18T07:47:49.616Z,16.59
2022-10-18T07:48:49.603Z,16.59
2022-10-18T07:49:49.580Z,16.62
2022-10-18T07:50:49.541Z,16.59
2022-10-18T07:51:49.520Z,16.61
2022-10-18T07:52:49.509Z,16.59
2022-10-18T07:53:49.526Z,16.61
2022-10-18T07:55:50.476Z,16.59
2022-10-18T07:56:49.531Z,16.61
2022-10-18T07:57:49.660Z,16.61
2022-10-18T07:58:49.430Z,16.61
2022-10-18T07:59:49.440Z,16.62
2022-10-18T08:00:49.410Z,16.59
2022-10-18T08:01:49.418Z,16.59
2022-10-18T08:02:49.381Z,16.62
2022-10-18T08:03:49.379Z,16.61
2022-10-18T08:04:49.369Z,16.61
2022-10-18T08:05:49.470Z,16.59
2022-10-18T08:06:49.351Z,16.58
2022-10-18T08:07:49.320Z,16.59
2022-10-18T08:08:49.300Z,16.61
2022-10-18T08:09:49.385Z,16.61
2022-10-18T08:10:49.340Z,16.62
2022-10-18T08:11:49.264Z,16.64
2022-10-18T08:12:49.265Z,16.65
2022-10-18T08:13:49.252Z,16.66
2022-10-18T08:14:49.244Z,16.69
2022-10-18T08:15:49.217Z,16.68
2022-10-18T08:16:49.201Z,16.69
2022-10-18T08:17:49.185Z,16.73
2022-10-18T08:18:49.162Z,16.74
2022-10-18T08:19:58.543Z,16.76
2022-10-18T08:20:50.128Z,16.77
2022-10-18T08:21:49.232Z,16.79
2022-10-18T08:22:49.196Z,16.79
2022-10-18T08:23:49.104Z,16.83
2022-10-18T08:24:49.100Z,16.82
2022-10-18T08:25:49.116Z,16.83
2022-10-18T08:26:49.062Z,16.87
2022-10-18T08:27:49.072Z,16.87
2022-10-18T08:28:53.963Z,16.91
2022-10-18T08:29:50.183Z,16.92
2022-10-18T08:30:49.018Z,16.95
2022-10-18T08:31:49.014Z,16.97
2022-10-18T08:32:49.003Z,17.01
2022-10-18T08:33:49.023Z,17.01
2022-10-18T08:34:48.966Z,17.02
2022-10-18T08:35:48.943Z,17.04
2022-10-18T08:36:48.942Z,17.07
2022-10-18T08:37:48.915Z,17.09
2022-10-18T08:38:48.904Z,17.10
2022-10-18T08:39:48.905Z,17.12
2022-10-18T08:40:48.883Z,17.13
2022-10-18T08:41:48.875Z,17.14
2022-10-18T08:42:48.854Z,17.14
2022-10-18T08:43:48.835Z,17.17
2022-10-18T08:44:48.849Z,17.17
2022-10-18T08:45:48.804Z,17.19
2022-10-18T08:46:48.801Z,17.20
2022-10-18T08:47:48.793Z,17.20
2022-10-18T08:48:48.791Z,17.23
2022-10-18T08:49:48.828Z,17.24
2022-10-18T08:50:48.744Z,17.27
2022-10-18T08:51:48.748Z,17.27
2022-10-18T08:52:48.715Z,17.28
2022-10-18T08:53:48.693Z,17.28
2022-10-18T08:54:48.753Z,17.31
2022-10-18T08:55:48.672Z,17.30
2022-10-18T08:56:48.654Z,17.32
2022-10-18T08:57:48.657Z,17.34
2022-10-18T08:58:48.636Z,17.35
2022-10-18T08:59:48.646Z,17.35
2022-10-18T09:00:48.616Z,17.37
2022-10-18T09:02:48.586Z,17.39
2022-10-18T09:03:48.635Z,17.41
2022-10-18T09:04:48.574Z,17.41
2022-10-18T09:05:48.546Z,17.46
2022-10-18T09:06:48.525Z,17.50
2022-10-18T09:07:48.515Z,17.53
2022-10-18T09:08:48.507Z,17.60
2022-10-18T09:09:48.486Z,17.71
2022-10-18T09:10:48.522Z,17.76
2022-10-18T09:11:48.486Z,17.84
2022-10-18T09:12:48.447Z,17.87
2022-10-18T09:13:48.425Z,17.93
2022-10-18T09:14:48.857Z,17.94
2022-10-18T09:15:48.427Z,17.97
2022-10-18T09:16:48.398Z,18.03
2022-10-18T09:17:48.378Z,18.06
2022-10-18T09:18:48.357Z,18.15
2022-10-18T09:19:48.413Z,18.15
2022-10-18T09:20:48.358Z,18.15
2022-10-18T09:21:48.334Z,18.12
2022-10-18T09:22:48.320Z,18.08
2022-10-18T09:23:48.296Z,18.08
2022-10-18T09:24:48.287Z,18.06
2022-10-18T09:25:48.282Z,18.05
2022-10-18T09:26:48.256Z,18.03
2022-10-18T09:27:48.247Z,18.00
2022-10-18T09:28:48.283Z,18.00
2022-10-18T09:29:48.221Z,18.00
2022-10-18T09:30:48.227Z,18.02
2022-10-18T09:31:48.197Z,18.02
2022-10-18T09:32:48.184Z,18.00
2022-10-18T09:33:48.182Z,17.98
2022-10-18T09:34:48.207Z,17.95
2022-10-18T09:35:48.148Z,17.94
2022-10-18T09:36:48.128Z,17.93
2022-10-18T09:37:48.119Z,17.91
2022-10-18T09:38:48.090Z,17.88
2022-10-18T09:39:48.096Z,17.87
2022-10-18T09:40:48.090Z,17.87
2022-10-18T09:41:48.048Z,17.87
2022-10-18T09:42:48.059Z,17.84
2022-10-18T09:43:48.049Z,17.84
2022-10-18T09:44:48.019Z,17.84
2022-10-18T09:45:48.020Z,17.80
2022-10-18T09:46:48.075Z,17.82
2022-10-18T09:47:47.990Z,17.80
2022-10-18T09:48:47.988Z,17.80
2022-10-18T09:49:47.979Z,17.80
2022-10-18T09:50:47.998Z,17.79
2022-10-18T09:51:47.931Z,17.79
2022-10-18T09:52:47.899Z,17.79
2022-10-18T09:53:47.899Z,17.80
2022-10-18T09:54:48.003Z,17.79
2022-10-18T09:55:47.891Z,17.80
2022-10-18T09:56:47.908Z,17.78
2022-10-18T09:57:47.850Z,17.76
2022-10-18T09:58:47.816Z,17.76
2022-10-18T09:59:47.829Z,17.78
2022-10-18T10:00:47.811Z,17.78
2022-10-18T10:01:47.793Z,17.79
2022-10-18T10:02:47.860Z,17.80
2022-10-18T10:03:47.827Z,17.79
2022-10-18T10:04:48.514Z,17.79
2022-10-18T10:05:47.761Z,17.79
2022-10-18T10:06:47.724Z,17.78
2022-10-18T10:07:47.702Z,17.79
2022-10-18T10:08:47.704Z,17.78
2022-10-18T10:09:47.684Z,17.79
2022-10-18T10:10:47.693Z,17.78
2022-10-18T10:11:47.652Z,17.79
2022-10-18T10:12:47.739Z,17.82
2022-10-18T10:13:47.672Z,17.82
2022-10-18T10:14:47.614Z,17.82
2022-10-18T10:15:47.631Z,17.82
2022-10-18T10:16:47.593Z,17.84
2022-10-18T10:17:47.582Z,17.84
2022-10-18T10:18:47.571Z,17.84
2022-10-18T10:19:47.554Z,17.84
2022-10-18T10:20:47.570Z,17.84
2022-10-18T10:21:47.544Z,17.86
2022-10-18T10:22:47.514Z,17.84
2022-10-18T10:23:47.512Z,17.82
2022-10-18T10:24:47.484Z,17.82
2022-10-18T10:25:47.514Z,17.82
2022-10-18T10:26:47.453Z,17.79
2022-10-18T10:27:47.444Z,17.82
2022-10-18T10:28:47.532Z,17.79
2022-10-18T10:29:47.491Z,17.82
2022-10-18T10:30:47.425Z,17.84
2022-10-18T10:31:47.486Z,17.87
2022-10-18T10:32:47.467Z,17.87
2022-10-18T10:33:47.366Z,17.88
2022-10-18T10:34:47.357Z,17.91
2022-10-18T10:35:53.616Z,17.93
2022-10-18T10:36:48.325Z,17.98
2022-10-18T10:37:47.316Z,18.02
2022-10-18T10:38:47.315Z,18.05
2022-10-18T10:39:55.470Z,18.08
2022-10-18T10:40:48.286Z,18.11
2022-10-18T10:41:47.256Z,18.18
2022-10-18T10:42:47.246Z,18.26
2022-10-18T10:43:47.239Z,18.28
2022-10-18T10:44:47.260Z,18.36
2022-10-18T10:45:47.206Z,18.34
2022-10-18T10:46:47.856Z,18.34
2022-10-18T10:47:47.187Z,18.37
2022-10-18T10:48:47.166Z,18.39
2022-10-18T10:49:47.158Z,18.39
2022-10-18T10:50:47.148Z,18.39
2022-10-18T10:51:53.713Z,18.39
2022-10-18T10:52:48.296Z,18.39
2022-10-18T10:53:47.152Z,18.37
2022-10-18T10:54:51.154Z,18.39
2022-10-18T10:55:48.076Z,18.39
2022-10-18T10:56:47.077Z,18.37
2022-10-18T10:57:47.059Z,18.37
2022-10-18T10:58:47.028Z,18.37
2022-10-18T10:59:47.032Z,18.37
2022-10-18T11:00:47.010Z,18.37
2022-10-18T11:01:47.017Z,18.37
2022-10-18T11:02:59.244Z,18.39
2022-10-18T11:03:48.017Z,18.41
2022-10-18T11:04:46.948Z,18.41
2022-10-18T11:05:46.978Z,18.39
2022-10-18T11:06:46.960Z,18.37
2022-10-18T11:07:46.968Z,18.41
2022-10-18T11:08:46.910Z,18.41
2022-10-18T11:09:46.909Z,18.39
2022-10-18T11:10:46.877Z,18.37
2022-10-18T11:11:46.878Z,18.37
2022-10-18T11:12:46.870Z,18.37
2022-10-18T11:13:49.984Z,18.36
2022-10-18T11:14:47.830Z,18.36
2022-10-18T11:15:46.830Z,18.34
2022-10-18T11:16:46.857Z,18.36
2022-10-18T11:17:46.864Z,18.34
2022-10-18T11:18:46.759Z,18.34
2022-10-18T11:19:46.762Z,18.34
2022-10-18T11:20:46.748Z,18.33
2022-10-18T11:21:46.740Z,18.33
2022-10-18T11:22:46.775Z,18.33
2022-10-18T11:23:46.710Z,18.30
2022-10-18T11:24:46.700Z,18.27
2022-10-18T11:25:46.680Z,18.30
2022-10-18T11:26:49.966Z,18.26
2022-10-18T11:27:47.691Z,18.27
2022-10-18T11:28:46.684Z,18.30
2022-10-18T11:29:46.639Z,18.31
2022-10-18T11:30:46.622Z,18.33
2022-10-18T11:31:46.612Z,18.34
2022-10-18T11:32:46.602Z,18.36
2022-10-18T11:34:07.662Z,18.37
2022-10-18T11:34:47.584Z,18.37
2022-10-18T11:35:46.565Z,18.41
2022-10-18T11:36:56.124Z,18.43
2022-10-18T11:37:47.545Z,18.45
2022-10-18T11:38:46.504Z,18.43
2022-10-18T11:39:46.503Z,18.48
2022-10-18T11:40:46.480Z,18.48
2022-10-18T11:41:46.475Z,18.49
2022-10-18T11:42:46.471Z,18.51
2022-10-18T11:44:01.593Z,18.46
2022-10-18T11:44:47.431Z,18.46
2022-10-18T11:45:46.425Z,18.48
2022-10-18T11:46:46.404Z,18.49
2022-10-18T11:47:46.412Z,18.48
2022-10-18T11:48:46.384Z,18.49
2022-10-18T11:49:46.364Z,18.49
2022-10-18T11:50:46.365Z,18.51
2022-10-18T11:52:03.624Z,18.52
2022-10-18T11:52:47.454Z,18.52
2022-10-18T11:53:51.640Z,18.52
2022-10-18T11:54:47.293Z,18.53
2022-10-18T11:55:46.275Z,18.52
2022-10-18T11:56:46.277Z,18.51
2022-10-18T11:57:46.273Z,18.49
2022-10-18T11:58:46.244Z,18.53
2022-10-18T11:59:46.232Z,18.55
2022-10-18T12:00:46.226Z,18.57
2022-10-18T12:01:46.196Z,18.58
2022-10-18T12:02:46.263Z,18.58
2022-10-18T12:03:46.177Z,18.55
2022-10-18T12:04:58.487Z,18.58
2022-10-18T12:05:47.136Z,18.60
2022-10-18T12:06:46.144Z,18.60
2022-10-18T12:07:46.157Z,18.61
2022-10-18T12:08:46.116Z,18.61
2022-10-18T12:09:46.258Z,18.64
2022-10-18T12:11:04.175Z,18.64
2022-10-18T12:11:48.192Z,18.66
2022-10-18T12:12:46.077Z,18.68
2022-10-18T12:13:46.037Z,18.71
2022-10-18T12:14:46.035Z,18.73
2022-10-18T12:15:46.047Z,18.76
2022-10-18T12:16:51.360Z,18.88
2022-10-18T12:17:50.100Z,18.91
2022-10-18T12:18:46.026Z,18.92
2022-10-18T12:19:45.980Z,19.05
2022-10-18T12:20:45.968Z,19.08
2022-10-18T12:21:45.935Z,19.16
2022-10-18T12:22:45.948Z,19.16
2022-10-18T12:23:45.917Z,19.23
2022-10-18T12:24:45.899Z,19.27
2022-10-18T12:25:45.967Z,19.34
2022-10-18T12:26:45.872Z,19.39
2022-10-18T12:27:45.880Z,19.44
2022-10-18T12:28:45.877Z,19.49
2022-10-18T12:29:48.056Z,19.49
2022-10-18T12:30:45.819Z,19.56
2022-10-18T12:31:45.819Z,19.60
2022-10-18T12:33:02.074Z,19.63
2022-10-18T12:33:46.788Z,19.64
2022-10-18T12:34:45.780Z,19.67
2022-10-18T12:35:45.771Z,19.72
2022-10-18T12:36:45.739Z,19.74
2022-10-18T12:37:45.729Z,19.78
2022-10-18T12:38:45.740Z,19.81
2022-10-18T12:40:05.514Z,19.87
2022-10-18T12:40:46.700Z,19.89
2022-10-18T12:41:45.674Z,19.96
2022-10-18T12:42:45.671Z,20.03
2022-10-18T12:43:45.651Z,20.03
2022-10-18T12:44:45.639Z,19.99
2022-10-18T12:45:45.610Z,20.03
2022-10-18T12:46:45.603Z,20.08
2022-10-18T12:47:45.601Z,20.11
2022-10-18T12:48:45.746Z,20.15
2022-10-18T12:49:45.583Z,20.19
2022-10-18T12:50:45.551Z,20.24
2022-10-18T12:51:52.704Z,20.10
2022-10-18T12:52:45.533Z,19.96
2022-10-18T12:53:45.511Z,19.82
2022-10-18T12:54:45.508Z,19.77
2022-10-18T12:55:45.495Z,19.70
2022-10-18T12:56:45.473Z,19.62
2022-10-18T12:57:45.452Z,19.53